createdAt,value
2018-04-24T00:01:46.566Z,99.90
2018-04-24T00:04:15.043Z,99.90
2018-04-24T00:06:42.626Z,99.90
2018-04-24T00:09:10.234Z,99.90
2018-04-24T00:11:37.837Z,99.90
2018-04-24T00:14:05.427Z,99.90
2018-04-24T00:16:33.006Z,99.90
2018-04-24T00:19:00.614Z,99.90
2018-04-24T00:21:28.953Z,99.90
2018-04-24T00:23:56.533Z,99.90
2018-04-24T00:26:24.154Z,99.90
2018-04-24T00:28:52.508Z,99.90
2018-04-24T00:31:20.099Z,99.90
2018-04-24T00:33:47.737Z,99.90
2018-04-24T00:36:15.332Z,99.90
2018-04-24T00:38:43.702Z,99.90
2018-04-24T00:41:11.309Z,99.90
2018-04-24T00:43:38.881Z,99.90
2018-04-24T00:46:06.474Z,99.90
2018-04-24T00:48:34.099Z,99.90
2018-04-24T00:51:01.677Z,99.90
2018-04-24T00:53:40.165Z,99.90
2018-04-24T00:56:07.746Z,99.90
2018-04-24T00:58:35.333Z,99.90
2018-04-24T01:01:02.950Z,99.90
2018-04-24T01:03:30.538Z,99.90
2018-04-24T01:05:58.891Z,99.90
2018-04-24T01:08:26.508Z,99.90
2018-04-24T01:10:54.866Z,99.90
2018-04-24T01:13:22.446Z,99.90
2018-04-24T01:15:50.113Z,99.90
2018-04-24T01:18:17.707Z,99.90
2018-04-24T01:20:46.147Z,99.90
2018-04-24T01:23:13.731Z,99.90
2018-04-24T01:25:41.324Z,99.90
2018-04-24T01:28:08.914Z,99.90
2018-04-24T01:30:36.548Z,99.90
2018-04-24T01:33:04.144Z,99.90
2018-04-24T01:35:32.224Z,99.90
2018-04-24T01:37:59.839Z,99.90
2018-04-24T01:40:28.192Z,99.90
2018-04-24T01:42:55.775Z,99.90
2018-04-24T01:45:23.391Z,99.90
2018-04-24T01:47:50.972Z,99.90
2018-04-24T01:50:18.554Z,99.90
2018-04-24T01:52:46.184Z,99.90
2018-04-24T01:55:14.539Z,99.90
2018-04-24T01:57:42.113Z,99.90
2018-04-24T02:00:09.731Z,99.90
2018-04-24T02:02:38.086Z,99.90
2018-04-24T02:05:05.679Z,99.90
2018-04-24T02:07:33.305Z,99.90
2018-04-24T02:10:00.884Z,99.90
2018-04-24T02:12:28.467Z,99.90
2018-04-24T02:14:56.103Z,99.90
2018-04-24T02:17:23.687Z,99.90
2018-04-24T02:19:51.266Z,99.90
2018-04-24T02:22:18.895Z,99.90
2018-04-24T02:24:46.543Z,99.90
2018-04-24T02:27:14.918Z,99.90
2018-04-24T02:29:42.531Z,99.90
2018-04-24T02:32:10.112Z,99.90
2018-04-24T02:34:39.613Z,99.90
2018-04-24T02:37:08.002Z,99.90
2018-04-24T02:39:35.586Z,99.90
2018-04-24T02:42:03.233Z,99.90
2018-04-24T02:44:30.849Z,99.90
2018-04-24T02:46:59.752Z,99.90
2018-04-24T02:49:28.103Z,99.90
2018-04-24T02:51:55.714Z,99.90
2018-04-24T02:54:24.059Z,99.90
2018-04-24T02:56:51.643Z,99.90
2018-04-24T02:59:19.250Z,99.90
2018-04-24T03:01:47.618Z,99.90
2018-04-24T03:04:15.209Z,99.90
2018-04-24T03:06:43.763Z,99.90
2018-04-24T03:09:11.439Z,99.90
2018-04-24T03:11:39.009Z,99.90
2018-04-24T03:14:06.615Z,99.90
2018-04-24T03:16:34.195Z,99.90
2018-04-24T03:19:01.783Z,99.90
2018-04-24T03:21:30.170Z,99.90
2018-04-24T03:23:58.520Z,99.90
2018-04-24T03:26:26.107Z,99.90
2018-04-24T03:28:53.724Z,99.90
2018-04-24T03:31:22.066Z,99.90
2018-04-24T03:33:49.642Z,99.90
2018-04-24T03:36:17.273Z,99.90
2018-04-24T03:38:44.881Z,99.90
2018-04-24T03:41:12.461Z,99.90
2018-04-24T03:43:40.070Z,99.90
2018-04-24T03:46:08.410Z,99.90
2018-04-24T03:48:38.444Z,99.90
2018-04-24T03:51:06.147Z,99.90
2018-04-24T03:53:33.791Z,99.90
2018-04-24T03:56:01.375Z,99.90
2018-04-24T03:58:29.024Z,99.90
2018-04-24T04:00:56.608Z,99.90
2018-04-24T04:03:24.224Z,99.90
2018-04-24T04:05:51.843Z,99.90
2018-04-24T04:08:19.546Z,99.90
2018-04-24T04:10:47.113Z,99.90
2018-04-24T04:13:14.743Z,99.90
2018-04-24T04:15:43.096Z,99.90
2018-04-24T04:18:22.658Z,99.90
2018-04-24T04:21:01.999Z,99.90
2018-04-24T04:23:41.562Z,99.90
2018-04-24T04:26:09.138Z,99.90
2018-04-24T04:28:36.718Z,99.90
2018-04-24T04:31:06.283Z,99.90
2018-04-24T04:33:33.873Z,99.90
2018-04-24T04:36:01.609Z,99.90
2018-04-24T04:38:29.219Z,99.90
2018-04-24T04:40:56.804Z,99.90
2018-04-24T04:43:24.375Z,99.90
2018-04-24T04:45:51.993Z,99.90
2018-04-24T04:48:20.339Z,99.90
2018-04-24T04:50:47.915Z,99.90
2018-04-24T04:53:15.531Z,99.90
2018-04-24T04:55:43.882Z,99.90
2018-04-24T04:58:11.462Z,99.90
2018-04-24T05:00:39.074Z,99.90
2018-04-24T05:03:06.739Z,99.90
2018-04-24T05:05:35.086Z,99.90
2018-04-24T05:08:02.726Z,99.90
2018-04-24T05:10:30.306Z,99.90
2018-04-24T05:12:57.891Z,99.90
2018-04-24T05:15:25.507Z,99.90
2018-04-24T05:17:53.106Z,99.90
2018-04-24T05:20:20.687Z,99.90
2018-04-24T05:22:48.297Z,99.90
2018-04-24T05:25:15.894Z,99.90
2018-04-24T05:27:43.469Z,99.90
2018-04-24T05:30:11.088Z,99.90
2018-04-24T05:32:38.665Z,99.90
2018-04-24T05:35:06.248Z,99.90
2018-04-24T05:37:33.862Z,99.90
2018-04-24T05:40:01.442Z,99.90
2018-04-24T05:42:29.043Z,99.90
2018-04-24T05:44:56.651Z,99.90
2018-04-24T05:47:24.231Z,99.90
2018-04-24T05:49:51.831Z,99.90
2018-04-24T05:52:19.606Z,99.90
2018-04-24T05:54:47.220Z,99.90
2018-04-24T05:57:15.585Z,97.40
2018-04-24T05:59:43.214Z,97.30
2018-04-24T06:02:10.815Z,96.20
2018-04-24T06:04:38.404Z,98.70
2018-04-24T06:07:06.045Z,98.80
2018-04-24T06:09:33.668Z,93.20
2018-04-24T06:12:01.311Z,92.90
2018-04-24T06:14:28.930Z,94.10
2018-04-24T06:16:56.535Z,94.60
2018-04-24T06:19:24.160Z,92.30
2018-04-24T06:21:51.829Z,95.30
2018-04-24T06:24:19.423Z,90.50
2018-04-24T06:26:47.770Z,94.60
2018-04-24T06:29:15.476Z,88.60
2018-04-24T06:31:43.070Z,83.80
2018-04-24T06:34:10.650Z,87.20
2018-04-24T06:36:38.257Z,87.40
2018-04-24T06:39:06.599Z,91.20
2018-04-24T06:41:34.197Z,91.10
2018-04-24T06:44:01.816Z,91.60
2018-04-24T06:46:29.407Z,90.00
2018-04-24T06:48:57.000Z,89.50
2018-04-24T06:51:24.620Z,89.10
2018-04-24T06:53:52.971Z,89.70
2018-04-24T06:56:20.561Z,89.80
2018-04-24T06:58:48.180Z,85.60
2018-04-24T07:01:15.775Z,87.80
2018-04-24T07:03:43.356Z,89.70
2018-04-24T07:06:10.979Z,88.40
2018-04-24T07:08:38.855Z,83.90
2018-04-24T07:11:07.215Z,77.90
2018-04-24T07:13:34.813Z,77.80
2018-04-24T07:16:02.384Z,79.40
2018-04-24T07:18:29.946Z,73.70
2018-04-24T07:20:57.543Z,57.30
2018-04-24T07:23:25.102Z,55.60
2018-04-24T07:25:52.672Z,45.30
2018-04-24T07:28:20.267Z,35.20
2018-04-24T07:30:47.826Z,36.70
2018-04-24T07:33:15.378Z,34.80
2018-04-24T07:35:42.967Z,35.20
2018-04-24T07:38:10.522Z,37.50
2018-04-24T07:40:38.078Z,35.90
2018-04-24T07:43:05.675Z,32.30
2018-04-24T07:45:33.247Z,26.20
2018-04-24T07:48:00.790Z,27.90
2018-04-24T07:50:28.466Z,28.00
2018-04-24T07:52:56.014Z,25.40
2018-04-24T07:55:24.339Z,24.40
2018-04-24T07:57:51.926Z,24.40
2018-04-24T08:00:19.478Z,24.30
2018-04-24T08:02:47.033Z,25.20
2018-04-24T08:05:15.370Z,25.70
2018-04-24T08:07:42.918Z,25.60
2018-04-24T08:10:10.466Z,25.30
2018-04-24T08:12:39.726Z,22.30
2018-04-24T08:15:07.292Z,22.40
2018-04-24T08:17:34.865Z,23.30
2018-04-24T08:20:02.465Z,24.80
2018-04-24T08:22:39.094Z,21.70
2018-04-24T08:25:06.699Z,26.70
2018-04-24T08:27:34.262Z,20.50
2018-04-24T08:30:01.832Z,24.90
2018-04-24T08:32:29.426Z,23.60
2018-04-24T08:34:56.989Z,25.10
2018-04-24T08:37:24.542Z,23.50
2018-04-24T08:39:52.135Z,22.70
2018-04-24T08:42:19.694Z,19.20
2018-04-24T08:44:47.249Z,18.30
2018-04-24T08:47:14.844Z,22.40
2018-04-24T08:49:42.411Z,17.30
2018-04-24T08:52:09.973Z,18.20
2018-04-24T08:54:37.553Z,18.10
2018-04-24T08:57:05.151Z,19.80
2018-04-24T08:59:32.728Z,20.00
2018-04-24T09:02:00.467Z,19.30
2018-04-24T09:04:28.667Z,17.40
2018-04-24T09:06:56.227Z,17.30
2018-04-24T09:09:23.821Z,19.30
2018-04-24T09:11:51.375Z,15.40
2018-04-24T09:14:18.935Z,16.40
2018-04-24T09:16:47.286Z,15.70
2018-04-24T09:19:14.843Z,15.50
2018-04-24T09:21:42.406Z,17.00
2018-04-24T09:24:10.004Z,15.80
2018-04-24T09:26:37.567Z,16.30
2018-04-24T09:29:05.126Z,16.30
2018-04-24T09:31:38.429Z,18.00
2018-04-24T09:34:05.996Z,13.90
2018-04-24T09:36:33.559Z,15.50
2018-04-24T09:39:01.240Z,14.90
2018-04-24T09:41:28.763Z,15.80
2018-04-24T09:43:56.342Z,16.10
2018-04-24T09:46:23.926Z,16.00
2018-04-24T09:48:52.274Z,15.20
2018-04-24T09:51:19.887Z,15.30
2018-04-24T09:53:47.418Z,12.60
2018-04-24T09:56:14.962Z,15.10
2018-04-24T09:58:42.506Z,13.30
2018-04-24T10:01:10.086Z,14.30
2018-04-24T10:03:38.415Z,15.00
2018-04-24T10:06:05.958Z,15.00
2018-04-24T10:08:34.334Z,12.20
2018-04-24T10:11:02.659Z,11.90
2018-04-24T10:13:30.222Z,11.90
2018-04-24T10:15:57.811Z,16.20
2018-04-24T10:18:25.362Z,16.50
2018-04-24T10:20:53.678Z,14.00
2018-04-24T10:23:21.254Z,13.90
2018-04-24T10:25:48.812Z,13.60
2018-04-24T10:28:16.374Z,13.60
2018-04-24T10:30:43.959Z,11.40
2018-04-24T10:33:11.520Z,14.80
2018-04-24T10:35:39.839Z,12.50
2018-04-24T10:38:07.426Z,12.50
2018-04-24T10:40:35.005Z,12.40
2018-04-24T10:43:02.577Z,13.10
2018-04-24T10:45:30.171Z,14.50
2018-04-24T10:47:57.733Z,13.10
2018-04-24T10:50:25.297Z,13.80
2018-04-24T10:52:52.880Z,13.00
2018-04-24T10:55:20.438Z,14.70
2018-04-24T10:57:47.990Z,13.80
2018-04-24T11:00:15.566Z,11.30
2018-04-24T11:02:43.131Z,11.00
2018-04-24T11:05:10.684Z,11.70
2018-04-24T11:07:39.039Z,13.10
2018-04-24T11:10:06.607Z,13.00
2018-04-24T11:12:34.199Z,14.10
2018-04-24T11:15:01.795Z,13.60
2018-04-24T11:17:29.357Z,12.10
2018-04-24T11:19:57.682Z,12.00
2018-04-24T11:22:25.250Z,12.00
2018-04-24T11:24:52.793Z,12.90
2018-04-24T11:27:21.120Z,15.80
2018-04-24T11:29:48.702Z,15.70
2018-04-24T11:32:16.264Z,14.70
2018-04-24T11:34:43.814Z,11.60
2018-04-24T11:37:12.163Z,14.20
2018-04-24T11:39:39.721Z,14.10
2018-04-24T11:42:07.270Z,15.70
2018-04-24T11:44:34.849Z,17.00
2018-04-24T11:47:02.416Z,14.40
2018-04-24T11:49:30.051Z,13.50
2018-04-24T11:51:57.583Z,13.60
2018-04-24T11:54:25.134Z,14.40
2018-04-24T11:56:52.691Z,13.90
2018-04-24T11:59:21.050Z,13.60
2018-04-24T12:01:48.616Z,13.50
2018-04-24T12:04:16.167Z,14.00
2018-04-24T12:06:43.754Z,16.80
2018-04-24T12:09:11.310Z,14.50
2018-04-24T12:11:38.866Z,12.40
2018-04-24T12:14:06.450Z,13.70
2018-04-24T12:16:34.012Z,14.20
2018-04-24T12:19:01.567Z,13.70
2018-04-24T12:21:29.147Z,13.30
2018-04-24T12:23:56.685Z,15.90
2018-04-24T12:26:24.253Z,13.70
2018-04-24T12:28:51.842Z,12.50
2018-04-24T12:31:20.160Z,12.90
2018-04-24T12:33:47.709Z,12.90
2018-04-24T12:36:16.046Z,15.40
2018-04-24T12:38:43.599Z,15.30
2018-04-24T12:41:11.165Z,14.50
2018-04-24T12:43:38.743Z,14.40
2018-04-24T12:46:06.304Z,15.80
2018-04-24T12:48:34.639Z,16.90
2018-04-24T12:51:02.274Z,16.90
2018-04-24T12:53:29.837Z,15.60
2018-04-24T12:55:57.416Z,15.40
2018-04-24T12:58:25.770Z,14.00
2018-04-24T13:00:53.331Z,13.90
2018-04-24T13:03:20.891Z,13.90
2018-04-24T13:05:48.473Z,15.50
2018-04-24T13:08:16.027Z,16.70
2018-04-24T13:10:43.578Z,14.20
2018-04-24T13:13:11.167Z,16.00
2018-04-24T13:15:38.739Z,15.40
2018-04-24T13:18:06.298Z,16.10
2018-04-24T13:20:33.912Z,16.30
2018-04-24T13:23:01.478Z,13.70
2018-04-24T13:25:29.504Z,15.00
2018-04-24T13:27:57.851Z,16.00
2018-04-24T13:30:25.408Z,16.00
2018-04-24T13:32:52.963Z,17.20
2018-04-24T13:35:20.551Z,16.30
2018-04-24T13:37:48.103Z,16.30
2018-04-24T13:40:16.423Z,19.30
2018-04-24T13:42:44.003Z,19.30
2018-04-24T13:45:11.565Z,18.00
2018-04-24T13:47:39.105Z,19.10
2018-04-24T13:50:07.466Z,17.00
2018-04-24T13:52:35.010Z,17.10
2018-04-24T13:55:02.579Z,18.20
2018-04-24T13:57:30.163Z,19.30
2018-04-24T13:59:57.724Z,17.70
2018-04-24T14:02:25.275Z,18.20
2018-04-24T14:04:52.864Z,18.70
2018-04-24T14:07:20.434Z,16.70
2018-04-24T14:09:47.990Z,18.30
2018-04-24T14:12:15.598Z,19.70
2018-04-24T14:14:43.160Z,19.50
2018-04-24T14:17:10.706Z,18.60
2018-04-24T14:19:38.316Z,18.10
2018-04-24T14:22:05.865Z,19.50
2018-04-24T14:24:33.427Z,19.20
2018-04-24T14:27:01.016Z,20.20
2018-04-24T14:29:28.574Z,18.80
2018-04-24T14:31:56.131Z,17.50
2018-04-24T14:34:24.492Z,18.40
2018-04-24T14:36:52.032Z,18.40
2018-04-24T14:39:19.600Z,19.70
2018-04-24T14:41:47.173Z,18.70
2018-04-24T14:44:14.728Z,19.30
2018-04-24T14:46:42.283Z,18.80
2018-04-24T14:49:10.622Z,18.20
2018-04-24T14:51:38.203Z,18.20
2018-04-24T14:54:05.756Z,18.20
2018-04-24T14:56:33.341Z,18.70
2018-04-24T14:59:00.905Z,17.50
2018-04-24T15:01:28.454Z,17.60
2018-04-24T15:03:56.034Z,17.90
2018-04-24T15:06:23.591Z,17.50
2018-04-24T15:08:51.910Z,17.80
2018-04-24T15:11:19.484Z,17.80
2018-04-24T15:13:47.034Z,18.20
2018-04-24T15:16:14.592Z,18.10
2018-04-24T15:18:43.013Z,18.50
2018-04-24T15:21:10.650Z,18.40
2018-04-24T15:23:38.216Z,19.30
2018-04-24T15:26:05.876Z,20.70
2018-04-24T15:28:33.448Z,21.30
2018-04-24T15:31:01.379Z,20.80
2018-04-24T15:33:28.938Z,20.00
2018-04-24T15:35:57.260Z,21.90
2018-04-24T15:38:24.814Z,21.80
2018-04-24T15:40:52.456Z,22.30
2018-04-24T15:43:20.014Z,20.70
2018-04-24T15:45:47.622Z,25.70
2018-04-24T15:48:16.000Z,28.00
2018-04-24T15:50:43.588Z,27.90
2018-04-24T15:53:11.186Z,30.30
2018-04-24T15:55:38.766Z,30.40
2018-04-24T15:58:06.346Z,32.60
2018-04-24T16:00:33.907Z,32.20
2018-04-24T16:03:05.598Z,31.20
2018-04-24T16:05:33.145Z,30.10
2018-04-24T16:08:00.707Z,31.90
2018-04-24T16:10:28.291Z,29.80
2018-04-24T16:12:55.845Z,28.70
2018-04-24T16:15:23.399Z,29.30
2018-04-24T16:17:51.750Z,28.80
2018-04-24T16:20:19.302Z,28.70
2018-04-24T16:22:46.867Z,28.70
2018-04-24T16:25:14.446Z,31.10
2018-04-24T16:27:41.999Z,28.00
2018-04-24T16:30:09.580Z,29.80
2018-04-24T16:32:37.154Z,30.40
2018-04-24T16:35:04.709Z,30.20
2018-04-24T16:37:33.033Z,29.50
2018-04-24T16:40:00.608Z,29.40
2018-04-24T16:42:28.782Z,27.60
2018-04-24T16:44:55.726Z,30.20
2018-04-24T16:47:23.307Z,29.20
2018-04-24T16:49:50.858Z,29.80
2018-04-24T16:52:18.452Z,29.30
2018-04-24T16:54:46.087Z,31.10
2018-04-24T16:57:14.437Z,32.60
2018-04-24T16:59:42.022Z,32.50
2018-04-24T17:02:09.615Z,34.60
2018-04-24T17:04:37.956Z,33.20
2018-04-24T17:07:05.533Z,33.10
2018-04-24T17:09:33.615Z,33.60
2018-04-24T17:12:01.212Z,35.20
2018-04-24T17:14:30.375Z,35.00
2018-04-24T17:16:57.978Z,34.50
2018-04-24T17:19:25.585Z,34.50
2018-04-24T17:21:53.406Z,35.10
2018-04-24T17:24:21.052Z,36.30
2018-04-24T17:26:49.414Z,36.40
2018-04-24T17:29:16.966Z,36.40
2018-04-24T17:31:44.551Z,36.20
2018-04-24T17:34:12.098Z,37.10
2018-04-24T17:36:39.655Z,36.70
2018-04-24T17:39:07.259Z,35.80
2018-04-24T17:41:34.859Z,37.40
2018-04-24T17:44:02.447Z,39.80
2018-04-24T17:46:30.824Z,39.40
2018-04-24T17:48:58.411Z,39.30
2018-04-24T17:51:26.754Z,36.70
2018-04-24T17:53:54.365Z,36.70
2018-04-24T17:56:22.029Z,36.90
2018-04-24T17:58:49.589Z,39.30
2018-04-24T18:01:17.203Z,40.20
2018-04-24T18:03:45.560Z,40.50
2018-04-24T18:06:18.645Z,40.40
2018-04-24T18:08:46.222Z,39.50
2018-04-24T18:11:13.812Z,41.10
2018-04-24T18:13:41.419Z,41.60
2018-04-24T18:16:08.998Z,39.40
2018-04-24T18:18:36.577Z,38.10
2018-04-24T18:21:04.208Z,39.50
2018-04-24T18:23:31.807Z,40.10
2018-04-24T18:26:00.252Z,40.40
2018-04-24T18:28:27.879Z,40.40
2018-04-24T18:30:56.230Z,44.30
2018-04-24T18:33:23.950Z,44.30
2018-04-24T18:35:52.310Z,47.00
2018-04-24T18:38:19.895Z,47.00
2018-04-24T18:40:48.248Z,45.10
2018-04-24T18:43:15.871Z,45.00
2018-04-24T18:45:44.207Z,47.50
2018-04-24T18:48:11.784Z,47.50
2018-04-24T18:50:39.391Z,48.70
2018-04-24T18:53:07.001Z,49.50
2018-04-24T18:55:34.630Z,48.10
2018-04-24T18:58:02.256Z,48.20
2018-04-24T19:00:29.833Z,48.90
2018-04-24T19:02:57.408Z,49.40
2018-04-24T19:05:25.018Z,52.10
2018-04-24T19:07:52.676Z,53.10
2018-04-24T19:10:20.955Z,53.70
2018-04-24T19:12:48.567Z,53.70
2018-04-24T19:15:16.421Z,51.80
2018-04-24T19:17:44.026Z,54.50
2018-04-24T19:20:12.409Z,54.40
2018-04-24T19:22:39.987Z,54.40
2018-04-24T19:25:13.358Z,54.30
2018-04-24T19:27:40.939Z,58.10
2018-04-24T19:30:08.519Z,58.80
2018-04-24T19:32:36.172Z,59.30
2018-04-24T19:35:03.767Z,60.20
2018-04-24T19:37:31.346Z,61.90
2018-04-24T19:40:04.662Z,63.40
2018-04-24T19:42:32.230Z,65.40
2018-04-24T19:44:59.834Z,64.10
2018-04-24T19:47:28.250Z,64.10
2018-04-24T19:50:01.531Z,64.00
2018-04-24T19:52:29.894Z,64.30
2018-04-24T19:55:03.223Z,64.20
2018-04-24T19:57:31.607Z,65.60
2018-04-24T19:59:59.183Z,65.50
2018-04-24T20:02:27.524Z,74.80
2018-04-24T20:04:56.313Z,74.00
2018-04-24T20:07:23.912Z,71.60
2018-04-24T20:09:51.929Z,70.70
2018-04-24T20:12:19.565Z,73.40
2018-04-24T20:14:47.142Z,72.00
2018-04-24T20:17:14.913Z,74.50
2018-04-24T20:19:42.744Z,76.10
2018-04-24T20:22:11.111Z,79.20
2018-04-24T20:24:39.544Z,81.70
2018-04-24T20:27:07.151Z,81.50
2018-04-24T20:29:34.737Z,81.90
2018-04-24T20:32:02.352Z,84.20
2018-04-24T20:34:30.734Z,84.70
2018-04-24T20:36:59.182Z,84.90
2018-04-24T20:39:26.772Z,84.90
2018-04-24T20:41:54.378Z,89.70
2018-04-24T20:44:22.722Z,93.30
2018-04-24T20:46:50.303Z,93.20
2018-04-24T20:49:17.906Z,94.60
2018-04-24T20:51:46.246Z,94.20
2018-04-24T20:54:13.877Z,93.80
2018-04-24T20:56:42.243Z,96.60
2018-04-24T20:59:09.813Z,97.10
2018-04-24T21:01:37.382Z,95.20
2018-04-24T21:04:04.992Z,95.60
2018-04-24T21:06:33.505Z,97.50
2018-04-24T21:09:01.264Z,97.40
2018-04-24T21:11:29.182Z,97.90
2018-04-24T21:13:56.766Z,98.60
2018-04-24T21:16:24.331Z,98.50
2018-04-24T21:18:51.931Z,98.20
2018-04-24T21:21:19.503Z,99.10
2018-04-24T21:23:47.086Z,99.30
2018-04-24T21:26:14.685Z,99.90
2018-04-24T21:28:43.024Z,99.90
2018-04-24T21:31:10.607Z,99.90
2018-04-24T21:33:38.202Z,99.90
2018-04-24T21:36:05.781Z,99.90
2018-04-24T21:38:34.134Z,99.90
2018-04-24T21:41:01.807Z,99.90
2018-04-24T21:43:29.382Z,99.90
2018-04-24T21:45:56.955Z,99.30
2018-04-24T21:48:24.550Z,99.70
2018-04-24T21:50:52.130Z,99.90
2018-04-24T21:53:19.697Z,99.90
2018-04-24T21:55:47.344Z,99.90
2018-04-24T21:58:14.916Z,99.90
2018-04-24T22:00:42.492Z,99.90
2018-04-24T22:03:10.091Z,99.90
2018-04-24T22:05:37.664Z,99.90
2018-04-24T22:08:05.235Z,99.90
2018-04-24T22:10:32.842Z,99.90
2018-04-24T22:13:01.186Z,99.90
2018-04-24T22:15:28.761Z,99.90
2018-04-24T22:17:56.362Z,99.90
2018-04-24T22:20:24.711Z,99.90
2018-04-24T22:22:52.294Z,99.90
2018-04-24T22:25:19.914Z,99.90
2018-04-24T22:27:48.256Z,99.90
2018-04-24T22:30:18.771Z,99.90
2018-04-24T22:32:46.379Z,99.90
2018-04-24T22:35:13.983Z,99.90
2018-04-24T22:37:42.327Z,99.30
2018-04-24T22:40:09.935Z,99.20
2018-04-24T22:42:37.511Z,99.50
2018-04-24T22:45:05.080Z,99.90
2018-04-24T22:47:32.744Z,99.90
2018-04-24T22:50:00.316Z,99.90
2018-04-24T22:52:27.903Z,99.90
2018-04-24T22:54:56.279Z,99.90
2018-04-24T22:57:23.842Z,99.90
2018-04-24T22:59:51.422Z,99.90
2018-04-24T23:02:19.046Z,99.90
2018-04-24T23:04:46.626Z,99.90
2018-04-24T23:07:14.206Z,99.90
2018-04-24T23:09:53.461Z,99.90
2018-04-24T23:12:32.933Z,99.90
2018-04-24T23:15:12.462Z,99.90
2018-04-24T23:17:51.798Z,99.90
2018-04-24T23:20:18.915Z,99.90
2018-04-24T23:22:46.486Z,99.90
2018-04-24T23:25:14.058Z,99.90
2018-04-24T23:27:41.666Z,99.90
2018-04-24T23:30:10.002Z,99.90
2018-04-24T23:32:37.569Z,99.90
2018-04-24T23:35:05.179Z,99.90
2018-04-24T23:37:32.753Z,99.90
2018-04-24T23:40:00.320Z,99.90
2018-04-24T23:42:27.923Z,99.90
2018-04-24T23:44:55.489Z,99.90
2018-04-24T23:47:23.835Z,99.90
2018-04-24T23:49:51.457Z,99.90
2018-04-24T23:52:19.851Z,99.90
2018-04-24T23:54:47.431Z,99.90
2018-04-24T23:57:15.037Z,99.90
2018-04-24T23:59:42.611Z,99.90
